Rancho Santa Fe (307) Station Data

Red Flag Warning: No
Fire Weather Zone: 243
SDGE Region: North Coast
Lat/Lon: 33.033/-117.189

Observations

Time Wind Speed/Gust Temp(F) RH Fuel Moist Fuel Temp(F) Dewpt(F) Tmax(F) Tmin(F) Accum Precip 10-min Precip SL Press(mb)
2/27 11:40pm 278 2 G 6 52° 96% - - 51° 57° 47.4° - - -
2/27 11:20pm 265 2 G 10 52° 96% - - 51° 57° 47.4° - - -
2/27 11:10pm 260 2 G 4 52° 96% - - 51° 57° 47.4° - - -
2/27 11:00pm 255 2 G 6 52° 96% - - 51° 57° 47.4° - - -
2/27 10:50pm 260 3 G 10 53° 96% - - 52° 57° 47.4° - - -
2/27 10:40pm 242 3 G 9 53° 96% - - 52° 57° 47.4° - - -
2/27 10:30pm 229 1 G 2 53° 96% - - 52° 57° 47.4° - - -
2/27 10:20pm 252 1 G 2 53° 96% - - 52° 57° 47.4° - - -
2/27 10:10pm 275 1 G 2 53° 96% - - 52° 57° 47.4° - - -
2/27 10:00pm 240 1 G 4 53° 96% - - 52° 57° 47.4° - - -
2/27 9:50pm 246 2 G 5 53° 96% - - 52° 57° 47.4° - - -
2/27 9:40pm 262 2 G 5 53° 96% - - 52° 57° 47.4° - - -
2/27 9:30pm 262 1 G 4 53° 96% - - 52° 57° 47.4° - - -
2/27 9:20pm 285 1 G 4 53° 96% - - 52° 57° 47.4° - - -
2/27 9:10pm 290 1 G 6 53° 96% - - 52° 57° 47.4° - - -
2/27 9:00pm 277 3 G 6 53° 96% - - 52° 57° 47.4° - - -
2/27 8:50pm 309 1 G 3 54° 96% - - 52° 57° 47.4° - - -
2/27 8:40pm 167 3 G 7 54° 96% - - 53° 57° 47.4° - - -
2/27 8:30pm 258 2 G 5 54° 96% - - 53° 57° 47.4° - - -
2/27 8:20pm 309 1 G 4 54° 96% - - 53° 57° 47.4° - - -
2/27 8:10pm 285 1 G 4 54° 96% - - 53° 57° 47.4° - - -
2/27 8:00pm 259 1 G 2 54° 95% - - 53° 57° 47.4° - - -
2/27 7:50pm 259 2 G 7 55° 95% - - 53° 57° 47.4° - - -
2/27 7:40pm 226 5 G 10 55° 95% - - 54° 57° 47.4° - - -
2/27 7:30pm 222 6 G 13 55° 95% - - 54° 57° 47.4° - - -
2/27 7:20pm 229 5 G 11 55° 95% - - 54° 57° 47.4° - - -
2/27 7:10pm 229 3 G 6 55° 95% - - 54° 57° 47.4° - - -
2/27 7:00pm 201 4 G 9 55° 95% - - 54° 57° 47.4° - - -
2/27 6:50pm 216 4 G 11 55° 95% - - 54° 57° 47.4° - - -
2/27 6:40pm 205 6 G 13 55° 95% - - 53° 57° 47.4° - - -
2/27 6:30pm 208 7 G 14 55° 95% - - 54° 57° 47.4° - - -
2/27 6:20pm 202 7 G 13 56° 95% - - 54° 57° 47.4° - - -
2/27 6:10pm 195 7 G 13 56° 94% - - 54° 57° 47.4° - - -
2/27 6:00pm 204 8 G 14 56° 94% - - 54° 57° 47.4° - - -
2/27 5:50pm 215 7 G 14 56° 94% - - 54° 57° 47.4° - - -
2/27 5:40pm 209 7 G 17 56° 94% - - 54° 57° 47.4° - - -
2/27 5:30pm 204 8 G 17 56° 94% - - 54° 57° 47.4° - - -
2/27 5:20pm 208 8 G 18 56° 94% - - 54° 57° 47.4° - - -
2/27 5:10pm 206 8 G 17 56° 94% - - 54° 57° 47.4° - - -
2/27 5:00pm 206 8 G 18 56° 94% - - 54° 57° 47.4° - - -
2/27 4:50pm 212 9 G 20 56° 94% - - 54° 57° 47.4° - - -
2/27 4:40pm 198 5 G 12 56° 94% - - 54° 57° 47.4° - - -
2/27 4:30pm 209 4 G 9 56° 94% - - 54° 57° 47.4° - - -
2/27 4:20pm 198 6 G 12 56° 94% - - 54° 57° 47.4° - - -
2/27 4:10pm 199 9 G 18 56° 94% - - 54° 57° 47.4° - - -
2/27 4:00pm 202 8 G 15 56° 94% - - 54° 57° 47.4° - - -
2/27 3:50pm 203 7 G 18 56° 94% - - 54° 57° 47.4° - - -
2/27 3:40pm 195 6 G 14 56° 94% - - 54° 57° 47.4° - - -
2/27 3:30pm 195 6 G 15 56° 94% - - 54° 57° 47.4° - - -
2/27 3:20pm 201 7 G 13 56° 94% - - 54° 57° 47.4° - - -
2/27 3:10pm 198 7 G 16 56° 94% - - 55° 57° 47.4° - - -
2/27 3:00pm 189 7 G 15 56° 94% - - 55° 57° 47.4° - - -
2/27 2:50pm 194 7 G 16 56° 94% - - 55° 57° 47.4° - - -
2/27 2:40pm 209 7 G 13 56° 93% - - 55° 57° 47.4° - - -
2/27 2:30pm 184 7 G 15 56° 94% - - 55° 57° 47.4° - - -
2/27 2:20pm 166 8 G 18 56° 94% - - 55° 57° 47.4° - - -
2/27 2:10pm 197 9 G 23 56° 94% - - 55° 57° 47.4° - - -
2/27 2:00pm 205 9 G 17 56° 94% - - 55° 57° 47.4° - - -
2/27 1:50pm 204 8 G 17 56° 95% - - 55° 56.8° 47.4° - - -
2/27 1:40pm 200 8 G 16 56° 95% - - 55° 56.8° 47.4° - - -
2/27 1:30pm 192 9 G 18 56° 95% - - 55° 56.8° 47.4° - - -
2/27 1:20pm 204 10 G 20 56° 95% - - 55° 56.8° 47.4° - - -
2/27 1:10pm 204 7 G 16 56° 95% - - 55° 56.8° 47.4° - - -
2/27 1:00pm 205 9 G 18 56° 95% - - 55° 56.8° 47.4° - - -
2/27 12:50pm 199 8 G 17 56° 95% - - 55° 56.8° 47.4° - - -
2/27 12:40pm 203 10 G 21 56° 95% - - 55° 56.8° 47.4° - - -
2/27 12:30pm 209 10 G 20 56° 95% - - 55° 56.8° 47.4° - - -
2/27 12:20pm 215 7 G 16 56° 95% - - 55° 56.8° 47.4° - - -
2/27 12:10pm 191 5 G 17 56° 95% - - 55° 56.8° 47.4° - - -
2/27 12:00pm 191 5 G 9 56° 95% - - 54° 56.8° 47.4° - - -
2/27 11:50am 202 6 G 14 55° 95% - - 54° 56.8° 47.4° - - -
2/27 11:40am 197 6 G 14 55° 95% - - 53° 56.8° 47.4° - - -
2/27 11:30am 198 9 G 19 55° 95% - - 53° 56.8° 47.4° - - -
2/27 11:20am 169 7 G 16 55° 95% - - 54° 56.8° 47.4° - - -
2/27 11:10am 161 5 G 15 55° 95% - - 54° 56.8° 47.4° - - -
2/27 11:00am 145 4 G 8 55° 96% - - 54° 56.8° 47.4° - - -
2/27 10:50am 163 3 G 8 55° 96% - - 54° 56.8° 47.4° - - -
2/27 10:40am 165 4 G 8 56° 96% - - 54° 56.8° 47.4° - - -
2/27 10:30am 189 4 G 8 56° 95% - - 54° 56.8° 47.4° - - -
2/27 10:20am 201 5 G 9 56° 95% - - 54° 56.8° 47.4° - - -
2/27 10:10am 197 7 G 14 56° 95% - - 54° 56.8° 47.4° - - -
2/27 10:00am 196 7 G 16 56° 95% - - 55° 56.8° 47.4° - - -
2/27 9:50am 196 5 G 13 56° 95% - - 55° 56.8° 47.4° - - -
2/27 9:40am 190 6 G 11 56° 95% - - 55° 56.7° 47.4° - - -
2/27 9:30am 204 6 G 17 56° 95% - - 55° 56.7° 47.4° - - -
2/27 9:20am 200 6 G 13 56° 95% - - 55° 56.7° 47.4° - - -
2/27 9:10am 203 6 G 13 56° 96% - - 55° 56.7° 47.4° - - -
2/27 9:00am 204 5 G 10 56° 96% - - 55° 56.7° 47.4° - - -
2/27 8:50am 196 6 G 12 56° 96% - - 55° 56.7° 47.4° - - -
2/27 8:40am 181 4 G 11 56° 96% - - 55° 56.7° 47.4° - - -
2/27 8:30am 182 3 G 11 56° 96% - - 55° 56.7° 47.4° - - -
2/27 8:20am 194 5 G 14 56° 96% - - 55° 56.7° 47.4° - - -
2/27 8:10am 204 5 G 10 56° 96% - - 55° 56.7° 47.4° - - -
2/27 8:00am 199 5 G 10 56° 96% - - 55° 56.7° 47.4° - - -
2/27 7:50am 207 6 G 14 56° 96% - - 55° 56.7° 47.4° - - -
2/27 7:40am 200 4 G 10 56° 96% - - 55° 56.6° 47.4° - - -
2/27 7:30am 201 5 G 10 56° 96% - - 55° 56.5° 47.4° - - -
2/27 7:20am 194 5 G 12 56° 96% - - 55° 56.5° 47.4° - - -
2/27 7:10am 199 6 G 12 56° 96% - - 55° 56.5° 47.4° - - -
2/27 7:00am 202 5 G 10 56° 96% - - 55° 56.5° 47.4° - - -
2/27 6:50am 204 6 G 12 56° 96% - - 55° 56.4° 47.4° - - -
2/27 6:40am 197 7 G 17 56° 96% - - 55° 56.4° 47.4° - - -
2/27 6:30am 201 6 G 12 56° 96% - - 55° 56.2° 47.4° - - -
2/27 6:20am 185 4 G 10 55° 96% - - 54° 55.5° 47.4° - - -
2/27 6:10am 156 2 G 7 54° 96% - - 53° 54.7° 47.4° - - -
2/27 6:00am 115 1 G 4 52° 96% - - 51° 53° 47.4° - - -
2/27 5:50am 93 1 G 2 52° 96% - - 51° 52.5° 47.4° - - -
2/27 5:40am 110 1 G 2 52° 96% - - 50° 52.1° 47.4° - - -
2/27 5:30am 94 2 G 4 51° 96% - - 50° 51.9° 47.4° - - -
2/27 5:20am 107 1 G 3 51° 96% - - 50° 51.6° 47.4° - - -
2/27 5:10am 74 1 G 3 51° 96% - - 50° 51.2° 47.4° - - -
2/27 5:00am 147 1 G 5 51° 96% - - 49° 51.1° 47.4° - - -
2/27 4:50am 80 3 G 6 50° 96% - - 49° 50.9° 47.4° - - -
2/27 4:40am 116 1 G 2 50° 96% - - 49° 50.8° 47.4° - - -
2/27 4:30am 92 2 G 3 50° 96% - - 49° 50.5° 47.4° - - -
2/27 4:20am 89 2 G 6 50° 95% - - 49° 50.5° 47.4° - - -
2/27 4:10am 98 3 G 6 50° 95% - - 48° 50.1° 47.4° - - -
2/27 4:00am 95 1 G 3 49° 95% - - 48° 49.9° 47.4° - - -
2/27 3:50am 79 1 G 4 49° 95% - - 48° 49.9° 47.4° - - -
2/27 3:40am 79 2 G 5 49° 95% - - 48° 49.7° 47.4° - - -
2/27 3:30am 92 2 G 5 49° 95% - - 48° 49.5° 47.4° - - -
2/27 3:20am 96 2 G 4 49° 95% - - 48° 49.4° 47.4° - - -
2/27 3:10am 93 2 G 7 49° 95% - - 47° 49.3° 47.4° - - -
2/27 3:00am 97 2 G 5 49° 95% - - 47° 49.1° 47.4° - - -
2/27 2:50am 83 1 G 4 48° 95% - - 47° 49.1° 47.4° - - -
2/27 2:40am 34 1 G 2 48° 95% - - 47° 49.1° 47.4° - - -
2/27 2:30am 73 1 G 1 48° 94% - - 47° 49.1° 47.4° - - -
2/27 2:20am 33 1 G 2 48° 94% - - 47° 49.1° 47.4° - - -
2/27 2:10am 70 1 G 1 48° 94% - - 46° 49.1° 47.4° - - -
2/27 2:00am 95 1 G 2 48° 93% - - 46° 49.1° 47.4° - - -
2/27 1:50am 86 1 G 2 48° 93% - - 46° 49.1° 47.4° - - -
2/27 1:40am 7 1 G 1 48° 92% - - 46° 49.1° 47.4° - - -
2/27 1:30am 80 1 G 4 48° 92% - - 46° 49.1° 47.4° - - -
2/27 1:20am 89 2 G 6 48° 90% - - 45° 49.1° 47.4° - - -
2/27 1:10am 94 2 G 4 48° 88% - - 45° 49.1° 47.4° - - -
2/27 1:00am 104 1 G 5 48° 86% - - 44° 49.1° 47.7° - - -
2/27 12:50am 83 1 G 4 48° 85% - - 44° 49.1° 47.7° - - -
2/27 12:40am 98 1 G 3 49° 83% - - 44° 49.1° 47.7° - - -
2/27 12:30am 116 1 G 4 48° 82% - - 43° 49.1° 47.7° - - -
2/27 12:20am 116 1 G 1 48° 83% - - 43° 48.8° 47.7° - - -
2/27 12:10am 79 1 G 1 48° 83% - - 43° 48.8° 47.7° - - -
2/27 12:00am 47 1 G 1 48° 84% - - 43° 59° 44.8° - - -
2/26 11:50pm 111 1 G 3 48° 84% - - 43° 59° 44.8° - - -
2/26 11:40pm 81 1 G 2 47° 84% - - 43° 59° 44.8° - - -
2/26 11:30pm 62 1 G 2 47° 85% - - 43° 59° 44.8° - - -
2/26 11:20pm 62 1 G 2 47° 86% - - 43° 59° 44.8° - - -
2/26 11:10pm 78 1 G 3 46° 87% - - 43° 59° 44.8° - - -
2/26 11:00pm 67 1 G 1 46° 87% - - 43° 59° 44.8° - - -
2/26 10:50pm 62 1 G 1 46° 87% - - 43° 59° 44.8° - - -
2/26 10:40pm 58 1 G 2 47° 86% - - 43° 59° 44.8° - - -
2/26 10:30pm 83 1 G 3 46° 87% - - 43° 59° 44.8° - - -
2/26 10:20pm 83 1 G 3 46° 90% - - 43° 59° 44.8° - - -
2/26 10:10pm 58 1 G 1 45° 91% - - 43° 59° 44.8° - - -
2/26 10:00pm 60 1 G 1 45° 90% - - 43° 59° 44.9° - - -
2/26 9:50pm 45 1 G 1 46° 90% - - 43° 59° 45° - - -
2/26 9:40pm 17 1 G 1 46° 90% - - 43° 59° 45.2° - - -
2/26 9:30pm 17 1 G 1 46° 90% - - 43° 59° 45.3° - - -
2/26 9:20pm 17 1 G 1 46° 91% - - 44° 59° 45.7° - - -
2/26 9:10pm 36 1 G 1 47° 91% - - 44° 59° 46° - - -
2/26 9:00pm 65 1 G 1 47° 90% - - 44° 59° 46.1° - - -
2/26 8:50pm 99 1 G 1 47° 89% - - 44° 59° 46.6° - - -
2/26 8:40pm 140 1 G 1 48° 88% - - 45° 59° 47.1° - - -
2/26 8:30pm 131 1 G 1 48° 88% - - 45° 59° 47.4° - - -
2/26 8:20pm 59 1 G 1 49° 86% - - 45° 59° 48.1° - - -
2/26 8:10pm 66 1 G 1 50° 83% - - 45° 59° 48.1° - - -
2/26 8:00pm 84 1 G 2 50° 83% - - 45° 59° 48.1° - - -
2/26 7:50pm 84 1 G 2 50° 81% - - 45° 59° 48.1° - - -
2/26 7:40pm 69 1 G 1 51° 78% - - 44° 59° 48.1° - - -
2/26 7:30pm 94 1 G 1 51° 78% - - 44° 59° 48.1° - - -
2/26 7:20pm 87 1 G 1 50° 79% - - 44° 59° 48.1° - - -
2/26 7:10pm 75 1 G 2 51° 80% - - 45° 59° 48.1° - - -
2/26 7:00pm 90 1 G 1 51° 76% - - 44° 59° 48.1° - - -
2/26 6:50pm 103 1 G 1 51° 75% - - 44° 59° 48.1° - - -
2/26 6:40pm 176 1 G 1 51° 77% - - 44° 59° 48.1° - - -
2/26 6:30pm 205 1 G 1 51° 76% - - 44° 59° 48.1° - - -
2/26 6:20pm 217 1 G 1 52° 74% - - 44° 59° 48.1° - - -
2/26 6:10pm 211 1 G 2 52° 73% - - 44° 59° 48.1° - - -
2/26 6:00pm 216 1 G 4 52° 72% - - 44° 59° 48.1° - - -
2/26 5:50pm 213 3 G 6 53° 71% - - 44° 59° 48.1° - - -
2/26 5:40pm 212 2 G 5 53° 71% - - 44° 59° 48.1° - - -
2/26 5:30pm 212 2 G 5 53° 70% - - 44° 59° 48.1° - - -
2/26 5:20pm 219 4 G 9 53° 69% - - 44° 59° 48.1° - - -
2/26 5:10pm 238 5 G 10 54° 68% - - 44° 59° 48.1° - - -
2/26 5:00pm 226 5 G 9 55° 66% - - 44° 59° 48.1° - - -